createdAt,value
2018-04-15T00:00:45.952Z,101010
2018-04-15T00:03:14.287Z,101008
2018-04-15T00:05:42.533Z,101005
2018-04-15T00:08:11.034Z,101005
2018-04-15T00:10:39.139Z,101002
2018-04-15T00:13:07.223Z,100994
2018-04-15T00:15:35.494Z,100993
2018-04-15T00:18:03.607Z,100986
2018-04-15T00:20:32.003Z,100988
2018-04-15T00:23:00.377Z,100988
2018-04-15T00:25:28.693Z,100992
2018-04-15T00:27:56.832Z,101001
2018-04-15T00:30:25.218Z,100994
2018-04-15T00:32:53.317Z,100995
2018-04-15T00:35:21.672Z,100988
2018-04-15T00:37:50.040Z,100995
2018-04-15T00:40:18.403Z,100997
2018-04-15T00:42:46.657Z,100986
2018-04-15T00:45:14.795Z,100985
2018-04-15T00:47:42.967Z,100974
2018-04-15T00:50:11.320Z,100980
2018-04-15T00:52:39.670Z,100974
2018-04-15T00:55:07.753Z,100966
2018-04-15T00:57:35.836Z,100967
2018-04-15T01:00:03.951Z,100950
2018-04-15T01:02:32.025Z,100955
2018-04-15T01:05:00.337Z,100946
2018-04-15T01:07:28.620Z,100950
2018-04-15T01:09:56.810Z,100956
2018-04-15T01:12:25.114Z,100953
2018-04-15T01:14:53.308Z,100948
2018-04-15T01:17:21.620Z,100951
2018-04-15T01:19:50.005Z,100937
2018-04-15T01:22:18.333Z,100935
2018-04-15T01:24:46.423Z,100935
2018-04-15T01:27:14.839Z,100932
2018-04-15T01:29:42.968Z,100916
2018-04-15T01:32:11.277Z,100923
2018-04-15T01:34:39.414Z,100927
2018-04-15T01:37:07.496Z,100921
2018-04-15T01:39:35.807Z,100918
2018-04-15T01:42:04.086Z,100910
2018-04-15T01:44:32.179Z,100905
2018-04-15T01:47:00.267Z,100906
2018-04-15T01:49:28.352Z,100904
2018-04-15T01:51:56.655Z,100899
2018-04-15T01:54:24.788Z,100898
2018-04-15T01:56:53.222Z,100901
2018-04-15T01:59:21.468Z,100895
2018-04-15T02:01:49.661Z,100885
2018-04-15T02:04:17.762Z,100880
2018-04-15T02:06:46.045Z,100886
2018-04-15T02:09:14.209Z,100884
2018-04-15T02:11:42.519Z,100887
2018-04-15T02:14:10.722Z,100888
2018-04-15T02:16:39.020Z,100886
2018-04-15T02:19:07.398Z,100884
2018-04-15T02:21:35.686Z,100882
2018-04-15T02:24:03.767Z,100883
2018-04-15T02:26:31.871Z,100882
2018-04-15T02:28:59.955Z,100890
2018-04-15T02:31:28.043Z,100880
2018-04-15T02:33:56.422Z,100883
2018-04-15T02:36:24.730Z,100878
2018-04-15T02:38:52.820Z,100878
2018-04-15T02:41:20.895Z,100880
2018-04-15T02:43:49.198Z,100863
2018-04-15T02:46:17.413Z,100863
2018-04-15T02:48:45.512Z,100855
2018-04-15T02:51:13.830Z,100849
2018-04-15T02:53:41.904Z,100851
2018-04-15T02:56:10.205Z,100839
2018-04-15T02:58:38.370Z,100844
2018-04-15T03:01:06.648Z,100844
2018-04-15T03:03:34.755Z,100834
2018-04-15T03:06:03.038Z,100834
2018-04-15T03:08:31.270Z,100826
2018-04-15T03:10:59.557Z,100828
2018-04-15T03:13:27.734Z,100827
2018-04-15T03:15:55.835Z,100818
2018-04-15T03:18:24.081Z,100807
2018-04-15T03:20:52.176Z,100814
2018-04-15T03:23:20.299Z,100808
2018-04-15T03:25:48.571Z,100813
2018-04-15T03:28:16.861Z,100808
2018-04-15T03:30:45.132Z,100811
2018-04-15T03:33:13.382Z,100813
2018-04-15T03:35:41.488Z,100806
2018-04-15T03:38:09.673Z,100816
2018-04-15T03:40:37.786Z,100811
2018-04-15T03:43:06.021Z,100807
2018-04-15T03:45:34.122Z,100801
2018-04-15T03:48:02.239Z,100801
2018-04-15T03:50:30.542Z,100797
2018-04-15T03:52:58.624Z,100795
2018-04-15T03:55:26.709Z,100792
2018-04-15T03:57:54.839Z,100790
2018-04-15T04:00:23.219Z,100794
2018-04-15T04:02:51.307Z,100789
2018-04-15T04:05:19.399Z,100788
2018-04-15T04:07:47.742Z,100791
2018-04-15T04:10:16.092Z,100780
2018-04-15T04:12:44.423Z,100780
2018-04-15T04:15:12.547Z,100788
2018-04-15T04:17:52.593Z,100785
2018-04-15T04:20:32.675Z,100782
2018-04-15T04:23:12.572Z,100784
2018-04-15T04:25:52.465Z,100775
2018-04-15T04:28:20.742Z,100771
2018-04-15T04:30:49.936Z,100776
2018-04-15T04:33:18.429Z,100775
2018-04-15T04:35:46.556Z,100774
2018-04-15T04:38:14.668Z,100772
2018-04-15T04:40:43.116Z,100771
2018-04-15T04:43:11.392Z,100763
2018-04-15T04:45:39.484Z,100770
2018-04-15T04:48:08.129Z,100775
2018-04-15T04:50:36.246Z,100777
2018-04-15T04:53:04.569Z,100775
2018-04-15T04:55:33.276Z,100773
2018-04-15T04:58:01.534Z,100776
2018-04-15T05:00:29.882Z,100781
2018-04-15T05:02:58.251Z,100770
2018-04-15T05:05:26.559Z,100772
2018-04-15T05:07:54.937Z,100780
2018-04-15T05:10:23.257Z,100773
2018-04-15T05:12:51.665Z,100777
2018-04-15T05:15:20.090Z,100769
2018-04-15T05:17:48.787Z,100776
2018-04-15T05:20:16.976Z,100774
2018-04-15T05:22:45.324Z,100775
2018-04-15T05:25:13.486Z,100788
2018-04-15T05:27:41.865Z,100783
2018-04-15T05:30:10.113Z,100804
2018-04-15T05:32:38.748Z,100827
2018-04-15T05:35:07.080Z,100830
2018-04-15T05:37:35.425Z,100834
2018-04-15T05:40:03.745Z,100848
2018-04-15T05:42:32.082Z,100847
2018-04-15T05:45:00.230Z,100843
2018-04-15T05:47:28.459Z,100833
2018-04-15T05:49:56.693Z,100807
2018-04-15T05:52:25.157Z,100807
2018-04-15T05:54:53.474Z,100800
2018-04-15T05:57:21.634Z,100801
2018-04-15T05:59:50.037Z,100799
2018-04-15T06:02:18.459Z,100795
2018-04-15T06:04:46.658Z,100784
2018-04-15T06:07:15.129Z,100797
2018-04-15T06:09:43.679Z,100790
2018-04-15T06:12:11.839Z,100788
2018-04-15T06:14:40.139Z,100794
2018-04-15T06:17:08.413Z,100792
2018-04-15T06:19:36.702Z,100793
2018-04-15T06:22:05.118Z,100779
2018-04-15T06:24:33.483Z,100774
2018-04-15T06:27:01.758Z,100777
2018-04-15T06:29:30.216Z,100767
2018-04-15T06:31:58.489Z,100767
2018-04-15T06:34:26.793Z,100761
2018-04-15T06:36:55.099Z,100777
2018-04-15T06:39:23.417Z,100774
2018-04-15T06:41:51.701Z,100770
2018-04-15T06:44:20.174Z,100770
2018-04-15T06:46:48.449Z,100773
2018-04-15T06:49:16.857Z,100765
2018-04-15T06:51:45.263Z,100766
2018-04-15T06:54:13.445Z,100769
2018-04-15T06:56:41.898Z,100758
2018-04-15T06:59:10.345Z,100765
2018-04-15T07:01:38.916Z,100762
2018-04-15T07:04:07.115Z,100766
2018-04-15T07:06:35.253Z,100771
2018-04-15T07:09:03.494Z,100767
2018-04-15T07:11:31.947Z,100769
2018-04-15T07:14:00.407Z,100768
2018-04-15T07:16:28.721Z,100758
2018-04-15T07:18:57.161Z,100767
2018-04-15T07:21:25.747Z,100767
2018-04-15T07:23:53.862Z,100764
2018-04-15T07:26:22.214Z,100761
2018-04-15T07:28:50.850Z,100771
2018-04-15T07:31:19.302Z,100778
2018-04-15T07:33:47.677Z,100768
2018-04-15T07:36:15.878Z,100772
2018-04-15T07:38:44.106Z,100778
2018-04-15T07:41:12.529Z,100782
2018-04-15T07:43:40.942Z,100775
2018-04-15T07:46:09.304Z,100779
2018-04-15T07:48:37.896Z,100776
2018-04-15T07:51:06.009Z,100779
2018-04-15T07:53:34.159Z,100777
2018-04-15T07:56:02.584Z,100774
2018-04-15T07:58:31.207Z,100772
2018-04-15T08:00:59.524Z,100767
2018-04-15T08:03:28.163Z,100761
2018-04-15T08:05:56.515Z,100771
2018-04-15T08:08:24.643Z,100762
2018-04-15T08:10:53.100Z,100776
2018-04-15T08:13:21.225Z,100769
2018-04-15T08:15:49.557Z,100762
2018-04-15T08:18:17.925Z,100753
2018-04-15T08:20:46.189Z,100758
2018-04-15T08:23:14.346Z,100746
2018-04-15T08:25:42.753Z,100741
2018-04-15T08:28:11.170Z,100741
2018-04-15T08:30:39.657Z,100735
2018-04-15T08:33:07.907Z,100731
2018-04-15T08:35:36.106Z,100740
2018-04-15T08:38:04.227Z,100742
2018-04-15T08:40:32.336Z,100731
2018-04-15T08:43:00.997Z,100734
2018-04-15T08:45:29.506Z,100727
2018-04-15T08:47:58.367Z,100731
2018-04-15T08:50:26.782Z,100742
2018-04-15T08:52:55.263Z,100734
2018-04-15T08:55:23.496Z,100735
2018-04-15T08:57:52.208Z,100734
2018-04-15T09:00:20.830Z,100731
2018-04-15T09:02:49.302Z,100738
2018-04-15T09:05:17.767Z,100729
2018-04-15T09:07:46.041Z,100729
2018-04-15T09:10:14.497Z,100717
2018-04-15T09:12:42.758Z,100721
2018-04-15T09:15:11.241Z,100722
2018-04-15T09:17:39.388Z,100715
2018-04-15T09:20:07.702Z,100713
2018-04-15T09:22:36.134Z,100705
2018-04-15T09:25:04.349Z,100711
2018-04-15T09:27:32.564Z,100698
2018-04-15T09:30:01.212Z,100700
2018-04-15T09:32:29.345Z,100700
2018-04-15T09:34:57.638Z,100694
2018-04-15T09:37:26.022Z,100699
2018-04-15T09:39:54.533Z,100688
2018-04-15T09:42:23.041Z,100692
2018-04-15T09:44:51.537Z,100690
2018-04-15T09:47:19.762Z,100674
2018-04-15T09:49:48.151Z,100675
2018-04-15T09:52:16.258Z,100667
2018-04-15T09:54:44.607Z,100666
2018-04-15T09:57:13.302Z,100665
2018-04-15T09:59:41.635Z,100657
2018-04-15T10:02:09.769Z,100659
2018-04-15T10:04:38.490Z,100656
2018-04-15T10:07:07.047Z,100655
2018-04-15T10:09:35.265Z,100654
2018-04-15T10:12:04.228Z,100658
2018-04-15T10:14:32.361Z,100652
2018-04-15T10:17:00.511Z,100644
2018-04-15T10:19:28.667Z,100642
2018-04-15T10:21:56.810Z,100643
2018-04-15T10:24:25.212Z,100636
2018-04-15T10:26:53.551Z,100632
2018-04-15T10:29:22.184Z,100627
2018-04-15T10:31:50.607Z,100637
2018-04-15T10:34:18.925Z,100640
2018-04-15T10:36:47.361Z,100628
2018-04-15T10:39:15.733Z,100631
2018-04-15T10:41:44.120Z,100626
2018-04-15T10:44:12.281Z,100624
2018-04-15T10:46:40.851Z,100619
2018-04-15T10:49:09.237Z,100621
2018-04-15T10:51:37.472Z,100624
2018-04-15T10:54:05.954Z,100634
2018-04-15T10:56:34.436Z,100618
2018-04-15T10:59:02.738Z,100612
2018-04-15T11:01:30.948Z,100615
2018-04-15T11:03:59.153Z,100610
2018-04-15T11:06:27.238Z,100615
2018-04-15T11:08:55.683Z,100615
2018-04-15T11:11:23.775Z,100612
2018-04-15T11:13:52.102Z,100601
2018-04-15T11:16:20.534Z,100610
2018-04-15T11:18:48.830Z,100605
2018-04-15T11:21:16.955Z,100601
2018-04-15T11:23:45.313Z,100604
2018-04-15T11:26:13.594Z,100591
2018-04-15T11:28:41.725Z,100603
2018-04-15T11:31:09.884Z,100597
2018-04-15T11:33:38.466Z,100594
2018-04-15T11:36:06.889Z,100593
2018-04-15T11:38:35.329Z,100580
2018-04-15T11:41:03.579Z,100578
2018-04-15T11:43:32.001Z,100588
2018-04-15T11:46:00.889Z,100576
2018-04-15T11:48:29.143Z,100565
2018-04-15T11:50:57.565Z,100571
2018-04-15T11:53:25.924Z,100567
2018-04-15T11:55:54.262Z,100568
2018-04-15T11:58:22.616Z,100557
2018-04-15T12:00:50.983Z,100549
2018-04-15T12:03:19.255Z,100545
2018-04-15T12:05:47.378Z,100539
2018-04-15T12:08:15.539Z,100548
2018-04-15T12:10:43.645Z,100546
2018-04-15T12:13:11.961Z,100538
2018-04-15T12:15:40.424Z,100542
2018-04-15T12:18:08.639Z,100556
2018-04-15T12:20:37.101Z,100544
2018-04-15T12:23:05.645Z,100534
2018-04-15T12:25:34.190Z,100537
2018-04-15T12:28:02.573Z,100530
2018-04-15T12:30:30.988Z,100521
2018-04-15T12:33:00.167Z,100529
2018-04-15T12:35:28.401Z,100517
2018-04-15T12:37:56.848Z,100525
2018-04-15T12:40:25.253Z,100530
2018-04-15T12:42:53.906Z,100517
2018-04-15T12:45:22.284Z,100523
2018-04-15T12:47:50.899Z,100516
2018-04-15T12:50:19.359Z,100521
2018-04-15T12:52:47.718Z,100515
2018-04-15T12:55:15.989Z,100505
2018-04-15T12:57:44.118Z,100487
2018-04-15T13:00:12.313Z,100503
2018-04-15T13:02:40.765Z,100499
2018-04-15T13:05:09.171Z,100501
2018-04-15T13:07:37.619Z,100498
2018-04-15T13:10:05.963Z,100497
2018-04-15T13:12:34.260Z,100497
2018-04-15T13:15:02.426Z,100487
2018-04-15T13:17:30.995Z,100484
2018-04-15T13:19:59.443Z,100484
2018-04-15T13:22:27.855Z,100477
2018-04-15T13:24:55.989Z,100477
2018-04-15T13:27:24.222Z,100468
2018-04-15T13:29:52.349Z,100463
2018-04-15T13:32:20.703Z,100466
2018-04-15T13:34:48.794Z,100461
2018-04-15T13:37:16.944Z,100453
2018-04-15T13:39:45.300Z,100461
2018-04-15T13:42:13.651Z,100469
2018-04-15T13:44:42.271Z,100460
2018-04-15T13:47:10.682Z,100461
2018-04-15T13:49:38.953Z,100454
2018-04-15T13:52:07.293Z,100459
2018-04-15T13:54:35.452Z,100451
2018-04-15T13:57:03.667Z,100450
2018-04-15T13:59:32.120Z,100463
2018-04-15T14:02:00.413Z,100462
2018-04-15T14:04:28.801Z,100458
2018-04-15T14:06:57.052Z,100455
2018-04-15T14:09:25.383Z,100458
2018-04-15T14:11:53.731Z,100459
2018-04-15T14:14:22.758Z,100451
2018-04-15T14:16:51.320Z,100448
2018-04-15T14:19:19.440Z,100432
2018-04-15T14:21:47.755Z,100436
2018-04-15T14:24:16.206Z,100431
2018-04-15T14:26:44.345Z,100426
2018-04-15T14:29:12.673Z,100426
2018-04-15T14:31:41.118Z,100432
2018-04-15T14:34:09.378Z,100425
2018-04-15T14:36:37.549Z,100423
2018-04-15T14:39:06.896Z,100417
2018-04-15T14:41:35.346Z,100413
2018-04-15T14:44:03.693Z,100422
2018-04-15T14:46:32.085Z,100410
2018-04-15T14:49:00.517Z,100412
2018-04-15T14:51:28.854Z,100411
2018-04-15T14:53:56.975Z,100394
2018-04-15T14:56:25.871Z,100401
2018-04-15T14:58:54.183Z,100405
2018-04-15T15:01:22.294Z,100406
2018-04-15T15:03:50.777Z,100398
2018-04-15T15:06:18.995Z,100402
2018-04-15T15:08:47.448Z,100398
2018-04-15T15:11:15.749Z,100400
2018-04-15T15:13:43.952Z,100396
2018-04-15T15:16:12.329Z,100397
2018-04-15T15:18:40.736Z,100395
2018-04-15T15:21:09.010Z,100393
2018-04-15T15:23:37.176Z,100392
2018-04-15T15:26:05.495Z,100399
2018-04-15T15:28:33.767Z,100388
2018-04-15T15:31:02.268Z,100399
2018-04-15T15:33:30.757Z,100391
2018-04-15T15:35:58.980Z,100396
2018-04-15T15:38:27.472Z,100395
2018-04-15T15:40:55.806Z,100405
2018-04-15T15:43:24.121Z,100396
2018-04-15T15:45:52.448Z,100397
2018-04-15T15:48:20.838Z,100401
2018-04-15T15:50:49.296Z,100392
2018-04-15T15:53:17.674Z,100394
2018-04-15T15:55:46.155Z,100403
2018-04-15T15:58:14.386Z,100398
2018-04-15T16:00:42.788Z,100400
2018-04-15T16:03:11.257Z,100398
2018-04-15T16:05:39.494Z,100394
2018-04-15T16:08:07.923Z,100394
2018-04-15T16:10:36.231Z,100398
2018-04-15T16:13:04.337Z,100393
2018-04-15T16:15:32.808Z,100387
2018-04-15T16:18:01.146Z,100385
2018-04-15T16:20:29.239Z,100388
2018-04-15T16:22:57.675Z,100398
2018-04-15T16:25:25.976Z,100398
2018-04-15T16:27:54.085Z,100388
2018-04-15T16:30:22.786Z,100399
2018-04-15T16:32:51.577Z,100398
2018-04-15T16:35:20.119Z,100392
2018-04-15T16:37:48.766Z,100393
2018-04-15T16:40:17.085Z,100392
2018-04-15T16:42:45.493Z,100378
2018-04-15T16:45:14.259Z,100382
2018-04-15T16:47:42.603Z,100390
2018-04-15T16:50:11.009Z,100379
2018-04-15T16:52:39.634Z,100374
2018-04-15T16:55:07.952Z,100376
2018-04-15T16:57:36.132Z,100379
2018-04-15T17:00:04.461Z,100390
2018-04-15T17:02:32.904Z,100387
2018-04-15T17:05:01.273Z,100389
2018-04-15T17:07:29.575Z,100379
2018-04-15T17:09:58.040Z,100385
2018-04-15T17:12:26.226Z,100387
2018-04-15T17:14:54.483Z,100391
2018-04-15T17:17:22.861Z,100393
2018-04-15T17:19:51.292Z,100385
2018-04-15T17:22:19.858Z,100392
2018-04-15T17:24:48.547Z,100381
2018-04-15T17:27:16.994Z,100386
2018-04-15T17:29:45.372Z,100388
2018-04-15T17:32:13.784Z,100391
2018-04-15T17:34:42.073Z,100394
2018-04-15T17:37:10.501Z,100391
2018-04-15T17:39:38.760Z,100394
2018-04-15T17:42:07.206Z,100390
2018-04-15T17:44:35.356Z,100387
2018-04-15T17:47:03.876Z,100387
2018-04-15T17:49:32.761Z,100400
2018-04-15T17:52:01.340Z,100403
2018-04-15T17:54:29.448Z,100405
2018-04-15T17:56:57.799Z,100410
2018-04-15T17:59:26.018Z,100415
2018-04-15T18:01:54.211Z,100407
2018-04-15T18:04:23.375Z,100416
2018-04-15T18:06:51.618Z,100413
2018-04-15T18:09:19.712Z,100417
2018-04-15T18:11:47.857Z,100421
2018-04-15T18:14:16.097Z,100421
2018-04-15T18:16:44.481Z,100414
2018-04-15T18:19:12.887Z,100422
2018-04-15T18:21:41.084Z,100423
2018-04-15T18:24:09.501Z,100423
2018-04-15T18:26:37.684Z,100424
2018-04-15T18:29:06.062Z,100425
2018-04-15T18:31:34.180Z,100421
2018-04-15T18:34:02.276Z,100417
2018-04-15T18:36:30.536Z,100429
2018-04-15T18:38:58.906Z,100436
2018-04-15T18:41:26.968Z,100433
2018-04-15T18:43:55.084Z,100435
2018-04-15T18:46:23.176Z,100436
2018-04-15T18:48:51.271Z,100439
2018-04-15T18:51:22.037Z,100432
2018-04-15T18:53:50.160Z,100425
2018-04-15T18:56:18.527Z,100435
2018-04-15T18:58:46.913Z,100434
2018-04-15T19:01:15.244Z,100425
2018-04-15T19:03:43.368Z,100429
2018-04-15T19:06:11.602Z,100423
2018-04-15T19:08:39.744Z,100432
2018-04-15T19:11:07.850Z,100427
2018-04-15T19:13:36.026Z,100424
2018-04-15T19:16:04.311Z,100425
2018-04-15T19:18:32.419Z,100428
2018-04-15T19:21:00.526Z,100429
2018-04-15T19:23:28.924Z,100417
2018-04-15T19:25:57.245Z,100417
2018-04-15T19:28:25.351Z,100417
2018-04-15T19:30:53.449Z,100413
2018-04-15T19:33:21.773Z,100399
2018-04-15T19:35:50.140Z,100396
2018-04-15T19:38:18.505Z,100405
2018-04-15T19:40:46.861Z,100398
2018-04-15T19:43:14.946Z,100411
2018-04-15T19:45:43.237Z,100404
2018-04-15T19:48:11.348Z,100409
2018-04-15T19:50:39.470Z,100401
2018-04-15T19:53:07.881Z,100405
2018-04-15T19:55:35.983Z,100403
2018-04-15T19:58:04.229Z,100409
2018-04-15T20:00:32.349Z,100403
2018-04-15T20:03:00.654Z,100408
2018-04-15T20:05:28.783Z,100395
2018-04-15T20:07:57.083Z,100410
2018-04-15T20:10:25.186Z,100405
2018-04-15T20:12:53.272Z,100416
2018-04-15T20:15:21.362Z,100403
2018-04-15T20:17:49.473Z,100403
2018-04-15T20:20:17.605Z,100402
2018-04-15T20:22:45.710Z,100396
2018-04-15T20:25:13.923Z,100394
2018-04-15T20:27:42.022Z,100393
2018-04-15T20:30:10.384Z,100390
2018-04-15T20:32:38.445Z,100400
2018-04-15T20:35:06.549Z,100406
2018-04-15T20:37:34.640Z,100409
2018-04-15T20:40:02.733Z,100410
2018-04-15T20:42:30.997Z,100413
2018-04-15T20:44:59.105Z,100420
2018-04-15T20:47:27.194Z,100418
2018-04-15T20:49:55.600Z,100412
2018-04-15T20:52:23.908Z,100419
2018-04-15T20:54:52.082Z,100429
2018-04-15T20:57:20.188Z,100424
2018-04-15T20:59:48.520Z,100439
2018-04-15T21:02:16.924Z,100435
2018-04-15T21:04:45.142Z,100434
2018-04-15T21:07:13.287Z,100429
2018-04-15T21:09:41.373Z,100441
2018-04-15T21:12:09.794Z,100444
2018-04-15T21:14:38.086Z,100430
2018-04-15T21:17:06.234Z,100433
2018-04-15T21:19:34.609Z,100440
2018-04-15T21:22:02.711Z,100440
2018-04-15T21:24:30.818Z,100434
2018-04-15T21:26:58.915Z,100420
2018-04-15T21:29:27.108Z,100405
2018-04-15T21:31:55.290Z,100396
2018-04-15T21:34:23.401Z,100393
2018-04-15T21:36:51.756Z,100400
2018-04-15T21:39:20.102Z,100392
2018-04-15T21:41:48.413Z,100395
2018-04-15T21:44:16.500Z,100389
2018-04-15T21:46:44.650Z,100397
2018-04-15T21:49:13.027Z,100381
2018-04-15T21:51:41.292Z,100402
2018-04-15T21:54:09.610Z,100391
2018-04-15T21:56:37.783Z,100384
2018-04-15T21:59:06.219Z,100378
2018-04-15T22:01:34.504Z,100391
2018-04-15T22:04:02.867Z,100380
2018-04-15T22:06:32.217Z,100380
2018-04-15T22:09:00.545Z,100392
2018-04-15T22:11:40.290Z,100390
2018-04-15T22:14:08.402Z,100381
2018-04-15T22:16:36.745Z,100388
2018-04-15T22:19:04.841Z,100393
2018-04-15T22:21:33.045Z,100389
2018-04-15T22:24:01.153Z,100401
2018-04-15T22:26:29.471Z,100393
2018-04-15T22:28:57.572Z,100406
2018-04-15T22:31:25.666Z,100398
2018-04-15T22:33:53.768Z,100388
2018-04-15T22:36:22.116Z,100380
2018-04-15T22:38:50.512Z,100380
2018-04-15T22:41:18.802Z,100380
2018-04-15T22:43:46.949Z,100384
2018-04-15T22:46:15.061Z,100375
2018-04-15T22:48:45.581Z,100363
2018-04-15T22:51:13.673Z,100367
2018-04-15T22:53:41.913Z,100361
2018-04-15T22:56:10.381Z,100371
2018-04-15T22:58:44.422Z,100375
2018-04-15T23:01:12.631Z,100370
2018-04-15T23:03:40.949Z,100375
2018-04-15T23:06:09.379Z,100373
2018-04-15T23:08:37.459Z,100350
2018-04-15T23:11:05.831Z,100355
2018-04-15T23:13:34.042Z,100362
2018-04-15T23:16:02.133Z,100364
2018-04-15T23:18:30.319Z,100373
2018-04-15T23:20:58.470Z,100358
2018-04-15T23:23:26.837Z,100357
2018-04-15T23:25:55.184Z,100363
2018-04-15T23:28:23.601Z,100358
2018-04-15T23:30:51.693Z,100360
2018-04-15T23:33:20.046Z,100345
2018-04-15T23:35:48.207Z,100355
2018-04-15T23:38:16.825Z,100348
2018-04-15T23:40:45.187Z,100360
2018-04-15T23:43:13.496Z,100365
2018-04-15T23:45:41.576Z,100360
2018-04-15T23:48:09.952Z,100350
2018-04-15T23:50:38.094Z,100361
2018-04-15T23:53:06.343Z,100383
2018-04-15T23:55:34.499Z,100377
2018-04-15T23:58:02.906Z,100388
